Time;durP1;ratioP1;P1;durP2;ratioP2;P2;SDS_P1;SDS_P2;PMS_P1;PMS_P2;Temp;Humidity;BMP_temperature;BMP_pressure;BME280_temperature;BME280_humidity;BME280_pressure;Samples;Min_cycle;Max_cycle;Signal;HPM_P1;HPM_P2
2021/11/03 00:00:39;;;;;;;;;;;10.50;82.20;;;;;;4934909;28;105985;-87
2021/11/03 00:03:06;;;;;;;;;;;10.60;82.20;;;;;;4953668;28;92466;-87
2021/11/03 00:05:33;;;;;;;;;;;10.50;81.80;;;;;;4969368;28;92599;-87
2021/11/03 00:08:00;;;;;;;;;;;10.50;82.10;;;;;;4953112;28;95881;-87
2021/11/03 00:10:27;;;;;;;;;;;10.50;82.00;;;;;;4953233;28;94685;-87
2021/11/03 00:12:54;;;;;;;;;;;10.50;81.90;;;;;;4963509;28;92656;-88
2021/11/03 00:15:21;;;;;;;;;;;10.50;81.70;;;;;;4954841;28;92789;-87
2021/11/03 00:17:52;;;;;;;;;;;10.40;81.50;;;;;;4969378;28;96289;-87
2021/11/03 00:20:19;;;;;;;;;;;10.40;81.50;;;;;;4954315;28;94939;-87
2021/11/03 00:22:46;;;;;;;;;;;10.40;81.60;;;;;;4969534;28;92579;-87
2021/11/03 00:25:13;;;;;;;;;;;10.30;81.60;;;;;;4966629;28;91908;-87
2021/11/03 00:27:40;;;;;;;;;;;10.30;81.50;;;;;;4954633;28;93638;-88
2021/11/03 00:30:07;;;;;;;;;;;10.30;81.60;;;;;;4952967;28;93582;-87
2021/11/03 00:32:34;;;;;;;;;;;10.30;81.70;;;;;;4963646;28;95327;-87
2021/11/03 00:35:00;;;;;;;;;;;10.30;81.80;;;;;;4969244;28;92501;-87
2021/11/03 00:37:27;;;;;;;;;;;10.30;81.70;;;;;;4961186;28;93299;-87
2021/11/03 00:39:54;;;;;;;;;;;10.30;81.70;;;;;;4976082;28;93095;-87
2021/11/03 00:42:21;;;;;;;;;;;10.30;81.70;;;;;;4976678;28;92422;-87
2021/11/03 00:44:48;;;;;;;;;;;10.30;81.70;;;;;;5008043;28;93233;-87
2021/11/03 00:47:15;;;;;;;;;;;10.30;81.50;;;;;;4979551;28;95727;-87
2021/11/03 00:49:42;;;;;;;;;;;10.30;81.60;;;;;;4996376;28;101495;-87
2021/11/03 00:52:09;;;;;;;;;;;10.20;81.60;;;;;;4979636;28;92765;-87
2021/11/03 00:54:36;;;;;;;;;;;10.20;81.70;;;;;;4996187;28;92686;-87
2021/11/03 00:57:03;;;;;;;;;;;10.20;81.80;;;;;;4996177;28;95543;-87
2021/11/03 00:59:30;;;;;;;;;;;10.10;81.80;;;;;;4995539;28;97652;-87
2021/11/03 01:01:58;;;;;;;;;;;10.10;81.60;;;;;;4979858;28;92953;-87
2021/11/03 01:04:25;;;;;;;;;;;10.10;81.60;;;;;;4982990;28;92498;-87
2021/11/03 01:06:52;;;;;;;;;;;10.10;81.60;;;;;;4996845;28;101832;-87
2021/11/03 01:09:19;;;;;;;;;;;10.10;81.60;;;;;;4979059;28;95207;-87
2021/11/03 01:11:50;;;;;;;;;;;10.10;81.60;;;;;;4997373;28;92388;-87
2021/11/03 01:14:18;;;;;;;;;;;10.10;81.70;;;;;;5012467;28;91756;-87
2021/11/03 01:16:45;;;;;;;;;;;10.10;81.80;;;;;;4995869;28;96475;-87
2021/11/03 01:19:12;;;;;;;;;;;10.10;81.70;;;;;;4963012;28;93993;-87
2021/11/03 01:21:40;;;;;;;;;;;10.00;81.80;;;;;;4996610;28;94775;-87
2021/11/03 01:24:07;;;;;;;;;;;10.10;81.80;;;;;;4995638;28;92838;-87
2021/11/03 01:26:35;;;;;;;;;;;10.00;81.70;;;;;;4996702;28;93282;-87
2021/11/03 01:29:02;;;;;;;;;;;10.10;81.80;;;;;;5012086;28;95197;-87
2021/11/03 01:31:30;;;;;;;;;;;10.10;81.80;;;;;;4996123;28;92417;-87
2021/11/03 01:33:59;;;;;;;;;;;10.10;81.80;;;;;;5012221;28;92543;-87
2021/11/03 01:36:26;;;;;;;;;;;10.10;81.80;;;;;;4996769;28;92510;-87
2021/11/03 01:38:53;;;;;;;;;;;10.10;81.60;;;;;;4995331;28;95498;-87
2021/11/03 01:41:21;;;;;;;;;;;10.10;81.80;;;;;;4979422;28;92474;-87
2021/11/03 01:44:00;;;;;;;;;;;10.10;81.80;;;;;;4978548;28;93634;-87
2021/11/03 01:46:28;;;;;;;;;;;10.10;81.80;;;;;;4979964;28;98004;-87
2021/11/03 01:49:12;;;;;;;;;;;10.10;81.60;;;;;;5011640;28;97230;-87
2021/11/03 01:51:44;;;;;;;;;;;10.10;81.60;;;;;;4995399;28;92502;-87
2021/11/03 01:54:15;;;;;;;;;;;10.00;81.50;;;;;;5012098;28;92743;-87
2021/11/03 01:56:43;;;;;;;;;;;10.00;81.70;;;;;;5008634;28;95374;-87
2021/11/03 01:59:22;;;;;;;;;;;10.00;81.80;;;;;;4994385;28;94480;-87
2021/11/03 02:01:49;;;;;;;;;;;10.00;81.80;;;;;;4983656;28;92502;-87
2021/11/03 02:04:17;;;;;;;;;;;10.00;81.80;;;;;;4975512;28;91736;-87
2021/11/03 02:06:44;;;;;;;;;;;10.00;81.80;;;;;;4976463;28;95208;-87
2021/11/03 02:09:11;;;;;;;;;;;10.00;81.80;;;;;;4994365;28;95302;-87
2021/11/03 02:11:38;;;;;;;;;;;10.00;81.70;;;;;;4994361;28;94911;-87
2021/11/03 02:14:06;;;;;;;;;;;10.00;81.50;;;;;;4996118;28;92498;-87
2021/11/03 02:16:35;;;;;;;;;;;9.90;81.40;;;;;;4994432;28;95812;-87
2021/11/03 02:19:03;;;;;;;;;;;9.90;81.30;;;;;;5005370;28;95369;-87
2021/11/03 02:21:34;;;;;;;;;;;9.90;81.70;;;;;;4995272;28;93823;-87
2021/11/03 02:24:06;;;;;;;;;;;9.90;81.40;;;;;;4994776;28;93151;-86
2021/11/03 02:26:44;;;;;;;;;;;9.90;81.20;;;;;;4996194;28;92553;-87
2021/11/03 02:29:11;;;;;;;;;;;9.90;81.30;;;;;;4995825;28;94218;-87
2021/11/03 02:31:46;;;;;;;;;;;9.90;81.20;;;;;;4995138;28;92475;-87
2021/11/03 02:34:40;;;;;;;;;;;9.90;81.10;;;;;;4996084;28;92426;-86
2021/11/03 02:37:26;;;;;;;;;;;9.90;80.90;;;;;;4975335;28;97964;-87
2021/11/03 02:39:56;;;;;;;;;;;9.80;81.10;;;;;;4977886;28;97118;-87
2021/11/03 02:42:24;;;;;;;;;;;9.80;81.10;;;;;;4996496;28;92571;-87
2021/11/03 02:44:53;;;;;;;;;;;9.80;81.00;;;;;;4994326;28;92519;-87
2021/11/03 02:47:20;;;;;;;;;;;9.80;80.80;;;;;;4991155;28;95477;-87
2021/11/03 02:49:46;;;;;;;;;;;9.80;80.90;;;;;;4996850;28;92865;-86
2021/11/03 02:52:15;;;;;;;;;;;9.80;80.80;;;;;;4993038;28;92570;-86
2021/11/03 02:54:42;;;;;;;;;;;9.80;81.20;;;;;;4977546;28;91806;-87
2021/11/03 02:57:09;;;;;;;;;;;9.70;81.10;;;;;;4977023;28;95430;-87
2021/11/03 02:59:36;;;;;;;;;;;9.70;81.10;;;;;;4992158;28;95030;-86
2021/11/03 03:02:05;;;;;;;;;;;9.70;81.20;;;;;;4997762;28;94858;-87
2021/11/03 03:04:34;;;;;;;;;;;9.70;81.10;;;;;;4994356;28;92498;-87
2021/11/03 03:07:03;;;;;;;;;;;9.70;81.10;;;;;;4993836;28;95544;-86
2021/11/03 03:09:30;;;;;;;;;;;9.70;81.30;;;;;;4961429;28;93008;-87
2021/11/03 03:11:59;;;;;;;;;;;9.60;81.10;;;;;;4991733;28;92798;-87
2021/11/03 03:14:29;;;;;;;;;;;9.70;81.20;;;;;;5010891;28;92501;-86
2021/11/03 03:16:57;;;;;;;;;;;9.60;81.10;;;;;;5010377;28;95430;-86
2021/11/03 03:19:24;;;;;;;;;;;9.70;81.00;;;;;;4961658;28;94859;-87
2021/11/03 03:21:52;;;;;;;;;;;9.60;81.00;;;;;;4999341;28;92830;-87
2021/11/03 03:24:19;;;;;;;;;;;9.50;81.00;;;;;;4993304;28;92819;-87
2021/11/03 03:26:47;;;;;;;;;;;9.50;81.10;;;;;;4992222;28;98212;-87
2021/11/03 03:29:14;;;;;;;;;;;9.50;81.00;;;;;;4992836;28;97780;-86
2021/11/03 03:31:42;;;;;;;;;;;9.50;81.00;;;;;;4994896;28;92502;-87
2021/11/03 03:34:12;;;;;;;;;;;9.50;81.20;;;;;;4993735;28;92570;-87
2021/11/03 03:36:40;;;;;;;;;;;9.50;81.00;;;;;;4993364;28;95880;-87
2021/11/03 03:39:08;;;;;;;;;;;9.50;81.20;;;;;;4976336;28;95541;-86
2021/11/03 03:41:36;;;;;;;;;;;9.50;81.00;;;;;;4993600;28;92671;-86
2021/11/03 03:44:03;;;;;;;;;;;9.50;80.90;;;;;;4993833;28;92139;-87
2021/11/03 03:46:30;;;;;;;;;;;9.50;81.00;;;;;;5009861;28;95687;-87
2021/11/03 03:48:58;;;;;;;;;;;9.50;81.00;;;;;;4976681;28;94807;-86
2021/11/03 03:51:25;;;;;;;;;;;9.50;81.00;;;;;;4975935;28;95224;-86
2021/11/03 03:53:52;;;;;;;;;;;9.50;81.50;;;;;;4994721;28;92590;-87
2021/11/03 03:56:22;;;;;;;;;;;9.40;81.50;;;;;;4993021;28;95861;-87
2021/11/03 03:58:51;;;;;;;;;;;9.40;81.30;;;;;;4993368;28;95458;-86
2021/11/03 04:01:20;;;;;;;;;;;9.40;81.30;;;;;;4993328;28;92536;-87
2021/11/03 04:03:51;;;;;;;;;;;9.30;81.60;;;;;;4993256;28;92566;-87
2021/11/03 04:06:18;;;;;;;;;;;9.30;81.50;;;;;;4958759;28;96225;-87
2021/11/03 04:08:45;;;;;;;;;;;9.30;81.40;;;;;;4976234;28;95619;-87
2021/11/03 04:11:12;;;;;;;;;;;9.30;81.50;;;;;;4992157;28;92536;-87
2021/11/03 04:13:39;;;;;;;;;;;9.30;81.30;;;;;;4993071;28;92964;-87
2021/11/03 04:16:07;;;;;;;;;;;9.20;81.40;;;;;;4974648;28;97796;-86
2021/11/03 04:18:35;;;;;;;;;;;9.20;81.60;;;;;;4992759;28;97259;-87
2021/11/03 04:21:03;;;;;;;;;;;9.10;81.40;;;;;;4994737;28;92619;-87
2021/11/03 04:23:30;;;;;;;;;;;9.10;81.60;;;;;;4963374;28;92496;-87
2021/11/03 04:25:57;;;;;;;;;;;9.00;81.60;;;;;;4979715;28;95443;-87
2021/11/03 04:28:25;;;;;;;;;;;9.00;81.60;;;;;;4996594;28;94929;-86
2021/11/03 04:30:52;;;;;;;;;;;9.00;81.60;;;;;;4998138;28;92367;-87
2021/11/03 04:33:20;;;;;;;;;;;8.90;81.50;;;;;;4996416;28;91878;-87
2021/11/03 04:35:48;;;;;;;;;;;9.00;81.50;;;;;;5007566;28;96003;-87
2021/11/03 04:38:16;;;;;;;;;;;8.90;81.40;;;;;;4994984;28;94987;-87
2021/11/03 04:40:43;;;;;;;;;;;8.90;81.40;;;;;;5012251;28;94913;-87
2021/11/03 04:43:11;;;;;;;;;;;8.90;81.40;;;;;;4979701;28;92568;-87
2021/11/03 04:45:38;;;;;;;;;;;8.80;81.30;;;;;;4987742;28;95157;-87
2021/11/03 04:48:06;;;;;;;;;;;8.80;82.00;;;;;;4995842;28;95213;-87
2021/11/03 04:50:33;;;;;;;;;;;8.70;81.30;;;;;;4996248;28;92773;-87
2021/11/03 04:53:01;;;;;;;;;;;8.60;81.50;;;;;;4996265;28;92498;-86
2021/11/03 04:55:31;;;;;;;;;;;8.50;81.70;;;;;;4998631;28;95418;-87
2021/11/03 04:57:59;;;;;;;;;;;8.40;82.50;;;;;;5013075;28;95077;-87
2021/11/03 05:00:29;;;;;;;;;;;8.30;81.70;;;;;;4979703;28;93020;-87
2021/11/03 05:02:59;;;;;;;;;;;8.20;82.10;;;;;;4996004;28;92477;-87
2021/11/03 05:05:26;;;;;;;;;;;8.20;82.30;;;;;;4977872;28;98270;-87
2021/11/03 05:07:54;;;;;;;;;;;8.20;82.40;;;;;;4975385;28;97382;-87
2021/11/03 05:10:22;;;;;;;;;;;8.10;82.40;;;;;;4976114;28;92615;-87
2021/11/03 05:12:50;;;;;;;;;;;8.10;82.50;;;;;;4975725;28;92874;-86
2021/11/03 05:15:20;;;;;;;;;;;8.10;82.50;;;;;;4975776;28;96001;-87
2021/11/03 05:17:48;;;;;;;;;;;8.10;82.80;;;;;;4992040;28;95255;-87
2021/11/03 05:20:17;;;;;;;;;;;8.10;83.00;;;;;;4996192;28;92924;-87
2021/11/03 05:22:45;;;;;;;;;;;8.10;83.30;;;;;;4979867;28;92234;-87
2021/11/03 05:25:14;;;;;;;;;;;8.20;83.30;;;;;;4978843;28;95546;-86
2021/11/03 05:27:41;;;;;;;;;;;8.20;83.00;;;;;;5001681;28;95124;-87
2021/11/03 05:30:08;;;;;;;;;;;8.20;83.20;;;;;;4977961;28;94836;-87
2021/11/03 05:32:35;;;;;;;;;;;8.20;83.40;;;;;;5010554;28;101956;-87
2021/11/03 05:35:02;;;;;;;;;;;8.20;82.50;;;;;;4995668;28;93065;-87
2021/11/03 05:37:29;;;;;;;;;;;8.20;82.50;;;;;;5010365;28;93144;-86
2021/11/03 05:39:56;;;;;;;;;;;8.20;83.20;;;;;;4996481;28;92526;-87
2021/11/03 05:42:23;;;;;;;;;;;8.20;82.60;;;;;;4995835;28;92511;-87
2021/11/03 05:44:50;;;;;;;;;;;8.20;82.70;;;;;;4995679;28;93111;-87
2021/11/03 05:47:22;;;;;;;;;;;8.20;82.90;;;;;;5012201;28;92600;-87
2021/11/03 05:49:49;;;;;;;;;;;8.20;82.90;;;;;;4979789;28;92722;-86
2021/11/03 05:52:16;;;;;;;;;;;8.10;82.90;;;;;;4978010;28;93304;-87
2021/11/03 05:54:43;;;;;;;;;;;8.20;82.60;;;;;;4995788;28;94744;-87
2021/11/03 05:57:18;;;;;;;;;;;8.20;82.50;;;;;;4977741;28;109503;-87
2021/11/03 05:59:45;;;;;;;;;;;8.20;82.90;;;;;;4996480;28;92963;-87
2021/11/03 06:02:11;;;;;;;;;;;8.20;82.20;;;;;;4993268;28;92555;-87
2021/11/03 06:04:38;;;;;;;;;;;8.20;83.00;;;;;;4977723;28;95478;-87
2021/11/03 06:07:05;;;;;;;;;;;8.20;82.30;;;;;;4994373;28;93380;-86
2021/11/03 06:09:32;;;;;;;;;;;8.10;82.90;;;;;;4996430;28;92462;-87
2021/11/03 06:12:00;;;;;;;;;;;8.10;82.50;;;;;;4979239;28;92074;-87
2021/11/03 06:14:27;;;;;;;;;;;8.10;82.70;;;;;;4994627;28;93167;-87
2021/11/03 06:16:53;;;;;;;;;;;8.10;82.60;;;;;;4962235;28;96696;-87
2021/11/03 06:19:20;;;;;;;;;;;8.10;82.80;;;;;;4994865;28;94784;-87
2021/11/03 06:21:50;;;;;;;;;;;8.10;82.60;;;;;;4996341;28;95863;-87
2021/11/03 06:24:17;;;;;;;;;;;8.10;82.80;;;;;;4978789;28;93228;-87
2021/11/03 06:26:44;;;;;;;;;;;8.10;82.90;;;;;;4996526;28;92715;-87
2021/11/03 06:29:11;;;;;;;;;;;8.10;82.90;;;;;;4994640;28;93020;-87
2021/11/03 06:31:38;;;;;;;;;;;8.00;83.70;;;;;;4992041;28;93101;-87
2021/11/03 06:34:07;;;;;;;;;;;8.00;83.40;;;;;;4994334;28;95621;-87
2021/11/03 06:36:36;;;;;;;;;;;8.00;83.70;;;;;;4996504;28;92568;-87
2021/11/03 06:39:06;;;;;;;;;;;8.10;83.80;;;;;;4996013;28;92517;-87
2021/11/03 06:41:34;;;;;;;;;;;8.10;84.10;;;;;;4995706;28;92569;-87
2021/11/03 06:44:02;;;;;;;;;;;8.00;84.70;;;;;;4975722;28;97457;-87
2021/11/03 06:46:29;;;;;;;;;;;8.10;84.50;;;;;;4995023;28;95148;-87
2021/11/03 06:48:56;;;;;;;;;;;8.10;84.70;;;;;;4995628;28;92410;-87
2021/11/03 06:51:23;;;;;;;;;;;8.10;84.30;;;;;;4992687;28;92575;-87
2021/11/03 06:53:50;;;;;;;;;;;8.10;85.20;;;;;;4994906;28;92489;-86
2021/11/03 06:56:17;;;;;;;;;;;8.10;85.40;;;;;;4994355;28;92397;-87
2021/11/03 06:58:44;;;;;;;;;;;8.00;84.30;;;;;;4995581;28;92883;-86
2021/11/03 07:01:12;;;;;;;;;;;8.10;84.30;;;;;;4987708;28;91842;-87
2021/11/03 07:03:40;;;;;;;;;;;8.10;84.40;;;;;;4995090;28;99736;-87
2021/11/03 07:06:08;;;;;;;;;;;8.10;84.20;;;;;;4995443;28;92975;-87
2021/11/03 07:08:35;;;;;;;;;;;8.20;84.10;;;;;;4994824;28;94741;-86
2021/11/03 07:11:01;;;;;;;;;;;8.20;84.20;;;;;;4992493;28;92781;-87
2021/11/03 07:13:29;;;;;;;;;;;8.10;84.30;;;;;;4992979;28;93335;-86
2021/11/03 07:15:56;;;;;;;;;;;8.10;84.90;;;;;;4988889;28;93213;-87
2021/11/03 07:18:24;;;;;;;;;;;8.20;84.20;;;;;;4994963;28;92471;-85
2021/11/03 07:20:51;;;;;;;;;;;8.20;84.20;;;;;;4993361;28;93037;-86
2021/11/03 07:23:19;;;;;;;;;;;8.20;83.70;;;;;;4994338;28;93100;-86
2021/11/03 07:25:50;;;;;;;;;;;8.30;83.70;;;;;;4994904;28;92694;-86
2021/11/03 07:28:17;;;;;;;;;;;8.30;83.10;;;;;;4994377;28;92890;-87
2021/11/03 07:30:44;;;;;;;;;;;8.30;84.00;;;;;;4994320;28;92521;-86
2021/11/03 07:33:12;;;;;;;;;;;8.30;83.70;;;;;;4991764;28;110510;-87
2021/11/03 07:35:39;;;;;;;;;;;8.30;83.10;;;;;;4989811;28;97733;-86
2021/11/03 07:38:07;;;;;;;;;;;8.30;83.00;;;;;;4992685;28;92516;-86
2021/11/03 07:40:36;;;;;;;;;;;8.30;82.80;;;;;;4990237;28;93898;-86
2021/11/03 07:43:03;;;;;;;;;;;8.30;83.20;;;;;;4973046;28;93084;-86
2021/11/03 07:45:31;;;;;;;;;;;8.40;82.40;;;;;;4976496;28;93057;-87
2021/11/03 07:47:59;;;;;;;;;;;8.40;82.20;;;;;;4993968;28;92621;-87
2021/11/03 07:50:28;;;;;;;;;;;8.40;82.40;;;;;;4993473;28;96936;-87
2021/11/03 07:52:55;;;;;;;;;;;8.50;82.10;;;;;;4992643;28;95673;-87
2021/11/03 07:55:21;;;;;;;;;;;8.60;82.10;;;;;;4995217;28;92587;-87
2021/11/03 07:57:49;;;;;;;;;;;8.50;81.70;;;;;;4996911;28;94939;-87
2021/11/03 08:00:21;;;;;;;;;;;8.50;81.80;;;;;;4996621;28;92539;-87
2021/11/03 08:02:48;;;;;;;;;;;8.50;81.70;;;;;;4980318;28;95523;-87
2021/11/03 08:05:15;;;;;;;;;;;8.60;82.20;;;;;;4979135;28;94552;-87
2021/11/03 08:07:42;;;;;;;;;;;8.70;81.90;;;;;;4997076;28;94472;-87
2021/11/03 08:10:14;;;;;;;;;;;8.70;81.60;;;;;;4987426;28;92843;-87
2021/11/03 08:12:44;;;;;;;;;;;8.70;81.40;;;;;;4974095;28;95858;-87
2021/11/03 08:15:12;;;;;;;;;;;8.70;81.40;;;;;;4996325;28;92398;-86
2021/11/03 08:17:40;;;;;;;;;;;8.70;81.40;;;;;;4979655;28;92509;-87
2021/11/03 08:20:09;;;;;;;;;;;8.70;81.80;;;;;;4978600;28;92917;-87
2021/11/03 08:22:37;;;;;;;;;;;8.70;81.60;;;;;;4995881;28;96169;-87
2021/11/03 08:25:04;;;;;;;;;;;8.70;81.40;;;;;;4979767;28;95314;-87
2021/11/03 08:27:31;;;;;;;;;;;8.80;81.40;;;;;;4972361;28;92804;-87
2021/11/03 08:29:58;;;;;;;;;;;8.80;81.20;;;;;;4957481;28;92688;-87
2021/11/03 08:32:27;;;;;;;;;;;8.70;81.20;;;;;;4997358;28;93585;-87
2021/11/03 08:34:54;;;;;;;;;;;8.70;81.60;;;;;;4997319;28;92961;-87
2021/11/03 08:37:25;;;;;;;;;;;8.70;82.10;;;;;;4997480;28;92780;-87
2021/11/03 08:39:52;;;;;;;;;;;8.80;81.90;;;;;;4983101;28;92071;-87
2021/11/03 08:42:20;;;;;;;;;;;8.80;81.50;;;;;;4988767;28;93219;-87
2021/11/03 08:44:47;;;;;;;;;;;8.80;81.70;;;;;;4979355;28;92667;-87
2021/11/03 08:47:14;;;;;;;;;;;8.80;81.70;;;;;;4996701;28;95155;-87
2021/11/03 08:49:41;;;;;;;;;;;8.90;81.70;;;;;;4997393;28;93171;-87
2021/11/03 08:52:09;;;;;;;;;;;8.90;81.30;;;;;;4979302;28;93273;-87
2021/11/03 08:54:40;;;;;;;;;;;9.00;80.90;;;;;;4995594;28;97710;-87
2021/11/03 08:57:20;;;;;;;;;;;9.00;80.60;;;;;;4996608;28;92441;-87
2021/11/03 08:59:52;;;;;;;;;;;8.90;80.50;;;;;;4997064;28;92540;-87
2021/11/03 09:02:19;;;;;;;;;;;8.90;81.30;;;;;;4978860;28;95852;-87
2021/11/03 09:04:47;;;;;;;;;;;8.80;81.70;;;;;;4997040;28;108674;-87
2021/11/03 09:07:14;;;;;;;;;;;8.70;82.00;;;;;;4995628;28;92902;-87
2021/11/03 09:09:43;;;;;;;;;;;8.80;81.40;;;;;;4995524;28;92893;-87
2021/11/03 09:12:10;;;;;;;;;;;8.70;81.40;;;;;;4995670;28;95454;-86
2021/11/03 09:14:37;;;;;;;;;;;8.80;80.80;;;;;;4996016;28;95321;-87
2021/11/03 09:17:04;;;;;;;;;;;8.80;81.30;;;;;;4997370;28;92382;-87
2021/11/03 09:19:31;;;;;;;;;;;8.90;80.90;;;;;;4979119;28;93712;-87
2021/11/03 09:21:58;;;;;;;;;;;9.00;80.10;;;;;;4966200;28;96278;-87
2021/11/03 09:24:27;;;;;;;;;;;9.00;80.40;;;;;;4995273;28;92595;-87
2021/11/03 09:26:53;;;;;;;;;;;9.10;80.10;;;;;;4979291;28;92728;-87
2021/11/03 09:29:20;;;;;;;;;;;9.10;80.30;;;;;;4977775;28;91762;-87
2021/11/03 09:31:47;;;;;;;;;;;9.20;80.40;;;;;;4996770;28;93577;-87
2021/11/03 09:34:14;;;;;;;;;;;9.30;79.50;;;;;;4979624;28;95427;-86
2021/11/03 09:36:43;;;;;;;;;;;9.40;79.20;;;;;;4995874;28;94867;-87
2021/11/03 09:39:14;;;;;;;;;;;9.50;79.10;;;;;;4995375;28;92471;-87
2021/11/03 09:41:47;;;;;;;;;;;9.50;79.20;;;;;;4996459;28;93003;-86
2021/11/03 09:44:17;;;;;;;;;;;9.60;78.80;;;;;;4996699;28;92494;-87
2021/11/03 09:46:49;;;;;;;;;;;9.70;78.60;;;;;;4996387;28;92410;-87
2021/11/03 09:49:19;;;;;;;;;;;9.70;78.30;;;;;;4984154;28;93017;-87
2021/11/03 09:51:53;;;;;;;;;;;9.70;78.10;;;;;;4976372;28;93215;-87
2021/11/03 09:54:26;;;;;;;;;;;9.70;78.30;;;;;;4975683;28;92973;-87
2021/11/03 09:57:13;;;;;;;;;;;9.80;78.20;;;;;;4977018;28;93203;-87
2021/11/03 09:59:44;;;;;;;;;;;9.80;78.60;;;;;;4963124;28;92455;-87
2021/11/03 10:02:11;;;;;;;;;;;9.80;77.90;;;;;;4970315;28;98270;-87
2021/11/03 10:04:46;;;;;;;;;;;9.80;78.40;;;;;;4975330;28;96340;-87
2021/11/03 10:07:25;;;;;;;;;;;9.80;78.80;;;;;;4974478;28;92626;-87
2021/11/03 10:09:52;;;;;;;;;;;9.80;77.90;;;;;;4964921;28;92410;-86
2021/11/03 10:12:20;;;;;;;;;;;;;;;;;;4959475;28;95564;-77
2021/11/03 10:24:14;;;;;;;38.50;23.67;;;21.60;62.90;;;;;;5051666;27;87287;-93
2021/11/03 10:26:57;;;;;;;26.48;22.33;;;20.60;67.00;;;;;;4995360;28;92159;-93
2021/11/03 10:29:45;;;;;;;23.00;20.40;;;19.50;60.80;;;;;;4940342;28;99041;-92
2021/11/03 10:32:15;;;;;;;27.65;21.98;;;18.60;58.90;;;;;;4966922;28;91109;-93
2021/11/03 10:34:46;;;;;;;29.48;22.42;;;17.80;58.50;;;;;;5010713;28;89459;-92
2021/11/03 10:37:16;;;;;;;35.83;23.13;;;17.10;58.40;;;;;;5006781;28;91191;-92
2021/11/03 10:40:18;;;;;;;41.63;22.75;;;16.50;58.90;;;;;;4993931;28;92024;-92
2021/11/03 10:42:50;;;;;;;28.75;22.00;;;16.00;59.00;;;;;;5011004;28;90380;-92
2021/11/03 10:45:34;;;;;;;41.65;23.15;;;15.50;60.70;;;;;;5009229;28;90134;-92
2021/11/03 10:48:07;;;;;;;34.50;23.13;;;15.00;60.80;;;;;;4992164;28;91795;-92
2021/11/03 10:50:54;;;;;;;33.03;25.30;;;14.60;61.40;;;;;;4997753;28;91462;-91
2021/11/03 10:53:29;;;;;;;36.65;24.27;;;14.10;62.30;;;;;;4988844;28;89334;-91
2021/11/03 10:56:37;;;;;;;27.77;20.98;;;13.80;63.10;;;;;;5003933;28;97813;-92
2021/11/03 10:59:25;;;;;;;33.40;22.88;;;13.20;64.00;;;;;;4917641;28;91829;-92
2021/11/03 11:01:54;;;;;;;37.53;23.83;;;12.80;65.60;;;;;;4914496;28;92216;-92
2021/11/03 11:04:32;;;;;;;38.30;21.33;;;12.70;66.20;;;;;;4979548;28;90435;-92
2021/11/03 11:07:29;;;;;;;29.52;22.23;;;12.40;66.30;;;;;;4988980;28;90087;-91
2021/11/03 11:10:28;;;;;;;30.08;20.70;;;12.20;67.10;;;;;;4986014;28;88837;-92
2021/11/03 11:12:58;;;;;;;28.58;20.65;;;12.10;67.80;;;;;;4972805;28;89008;-92
2021/11/03 11:15:41;;;;;;;29.42;21.40;;;12.10;68.10;;;;;;5018554;28;94282;-92
2021/11/03 11:18:30;;;;;;;30.95;20.30;;;12.00;68.30;;;;;;4990702;28;88697;-91
2021/11/03 11:21:03;;;;;;;27.65;19.50;;;12.00;68.30;;;;;;5008752;28;91396;-90
2021/11/03 11:23:46;;;;;;;28.08;20.33;;;12.00;68.30;;;;;;5007507;28;90698;-92
2021/11/03 11:26:42;;;;;;;28.50;18.83;;;12.00;68.30;;;;;;4993886;28;88919;-92
2021/11/03 11:29:33;;;;;;;30.60;19.40;;;12.10;68.30;;;;;;4976195;28;90451;-91
2021/11/03 11:32:03;;;;;;;30.40;21.40;;;12.10;68.50;;;;;;5023229;28;92259;-92
2021/11/03 11:34:55;;;;;;;30.55;19.98;;;12.10;68.40;;;;;;4984689;28;92169;-91
2021/11/03 11:37:32;;;;;;;28.92;19.67;;;12.10;68.60;;;;;;4995011;28;89951;-91
2021/11/03 11:40:08;;;;;;;31.02;20.50;;;12.10;68.50;;;;;;4995389;28;89258;-92
2021/11/03 11:43:06;;;;;;;28.52;18.95;;;12.10;68.90;;;;;;4978575;28;91992;-91
2021/11/03 11:45:35;;;;;;;28.73;19.45;;;12.10;68.70;;;;;;4977952;28;89464;-90
2021/11/03 11:48:30;;;;;;;32.08;21.10;;;12.10;68.50;;;;;;4996565;28;88614;-92
2021/11/03 11:51:06;;;;;;;28.55;19.98;;;12.10;68.70;;;;;;4978871;28;90227;-91
2021/11/03 11:53:40;;;;;;;31.02;20.17;;;12.10;68.70;;;;;;4994830;28;89765;-91
2021/11/03 11:56:10;;;;;;;31.90;20.47;;;12.10;68.70;;;;;;4995248;28;90812;-92
2021/11/03 11:58:45;;;;;;;29.27;20.08;;;12.10;68.90;;;;;;4979813;28;88468;-92
2021/11/03 12:01:16;;;;;;;28.67;18.75;;;12.00;69.30;;;;;;4993300;28;90112;-89
2021/11/03 12:04:13;;;;;;;28.70;20.42;;;12.00;70.30;;;;;;4990449;28;89721;-85
2021/11/03 12:06:51;;;;;;;34.00;21.15;;;12.00;69.40;;;;;;4967544;28;89281;-92
2021/11/03 12:09:40;;;;;;;30.00;20.70;;;12.00;69.30;;;;;;4977012;28;88582;-85
2021/11/03 12:12:07;;;;;;;35.42;23.50;;;11.90;69.50;;;;;;4977341;28;88698;-84
2021/11/03 12:14:52;;;;;;;33.78;24.00;;;11.90;69.90;;;;;;4976244;28;92327;-86
2021/11/03 12:17:37;;;;;;;40.72;31.25;;;11.90;69.80;;;;;;4976985;28;88858;-93
2021/11/03 12:20:23;;;;;;;28.00;19.88;;;11.90;69.60;;;;;;5006972;28;91108;-85
2021/11/03 12:23:03;;;;;;;38.33;22.60;;;11.90;69.70;;;;;;4988952;28;88730;-86
2021/11/03 12:25:30;;;;;;;32.72;20.27;;;11.90;69.10;;;;;;4957789;28;90296;-86
2021/11/03 12:28:09;;;;;;;32.15;21.70;;;12.00;69.20;;;;;;4990126;28;92581;-91
2021/11/03 12:30:39;;;;;;;43.47;33.00;;;12.00;69.10;;;;;;4962884;28;90390;-90
2021/11/03 12:33:13;;;;;;;40.80;29.85;;;12.00;69.40;;;;;;4993418;28;89738;-90
2021/11/03 12:35:40;;;;;;;32.38;21.85;;;12.00;69.20;;;;;;4978430;28;89567;-89
2021/11/03 12:38:10;;;;;;;28.73;20.05;;;12.00;69.10;;;;;;4978177;28;91682;-90
2021/11/03 12:40:44;;;;;;;29.33;20.40;;;12.10;69.10;;;;;;5004011;28;90923;-90
2021/11/03 12:43:29;;;;;;;29.30;19.52;;;12.20;68.90;;;;;;4977325;28;89910;-90
2021/11/03 12:46:08;;;;;;;29.40;19.85;;;12.20;68.60;;;;;;4975984;28;94275;-90
2021/11/03 12:48:49;;;;;;;27.58;19.08;;;12.30;68.50;;;;;;4982978;28;88836;-90
2021/11/03 12:51:30;;;;;;;24.80;18.42;;;12.40;68.40;;;;;;5013284;28;90290;-89
2021/11/03 12:54:12;;;;;;;23.98;17.73;;;12.40;68.10;;;;;;4977660;28;89983;-89
2021/11/03 12:56:51;;;;;;;23.10;17.08;;;12.40;67.50;;;;;;4992807;28;92704;-90
2021/11/03 12:59:26;;;;;;;25.63;17.45;;;12.40;67.60;;;;;;4993120;28;89000;-90
2021/11/03 13:02:03;;;;;;;24.55;18.25;;;12.40;67.90;;;;;;4992312;28;90526;-89
2021/11/03 13:04:34;;;;;;;21.17;16.05;;;12.50;67.70;;;;;;4976019;28;91141;-90
2021/11/03 13:07:13;;;;;;;23.15;17.75;;;12.60;67.60;;;;;;4978547;28;89056;-90
2021/11/03 13:09:44;;;;;;;26.17;18.50;;;12.60;67.20;;;;;;4977699;28;89324;-89
2021/11/03 13:12:37;;;;;;;25.13;17.95;;;12.70;67.10;;;;;;4992798;28;90510;-89
2021/11/03 13:15:30;;;;;;;23.58;18.20;;;12.80;66.90;;;;;;4992768;28;89810;-90
2021/11/03 13:18:12;;;;;;;26.13;19.45;;;12.90;66.80;;;;;;4979355;28;92022;-90
2021/11/03 13:20:52;;;;;;;25.95;19.17;;;12.90;66.50;;;;;;4992834;28;91748;-90
2021/11/03 13:23:21;;;;;;;23.15;18.10;;;13.00;66.30;;;;;;4976613;28;90300;-90
2021/11/03 13:25:52;;;;;;;23.88;16.83;;;13.10;66.00;;;;;;4982751;28;88535;-90
2021/11/03 13:28:34;;;;;;;19.60;15.68;;;13.10;65.70;;;;;;4974291;28;92656;-90
2021/11/03 13:31:24;;;;;;;20.42;16.73;;;13.10;65.90;;;;;;4966974;28;92005;-91
2021/11/03 13:34:13;;;;;;;21.95;16.35;;;13.20;65.70;;;;;;4978999;28;90412;-90
2021/11/03 13:37:00;;;;;;;26.38;19.30;;;13.20;65.40;;;;;;4959515;28;89624;-91
2021/11/03 13:39:34;;;;;;;23.67;17.25;;;13.20;65.20;;;;;;4987436;28;91899;-90
2021/11/03 13:42:32;;;;;;;24.65;18.25;;;13.30;65.10;;;;;;4998402;28;91309;-90
2021/11/03 13:45:22;;;;;;;21.52;17.10;;;13.20;64.80;;;;;;4961131;28;90692;-91
2021/11/03 13:48:08;;;;;;;26.48;17.83;;;13.10;65.20;;;;;;4961067;28;89958;-90
2021/11/03 13:50:48;;;;;;;24.52;17.33;;;12.80;65.30;;;;;;4965430;28;91799;-91
2021/11/03 13:53:15;;;;;;;20.70;16.95;;;12.70;66.20;;;;;;4974223;28;91760;-90
2021/11/03 13:56:08;;;;;;;26.45;18.75;;;12.60;66.30;;;;;;5002264;28;91054;-91
2021/11/03 13:58:40;;;;;;;29.42;20.75;;;12.60;66.80;;;;;;4997963;28;90157;-91
2021/11/03 14:01:15;;;;;;;22.10;16.88;;;12.60;66.90;;;;;;4978108;28;92256;-90
2021/11/03 14:04:01;;;;;;;23.65;17.25;;;12.50;67.00;;;;;;4995852;22;91357;-90
2021/11/03 14:06:45;;;;;;;24.88;17.45;;;12.50;67.10;;;;;;4961898;28;89842;-90
2021/11/03 14:09:20;;;;;;;22.35;15.70;;;12.60;67.30;;;;;;4961764;28;90180;-93
2021/11/03 14:11:50;;;;;;;27.75;20.52;;;12.60;67.40;;;;;;4978434;28;89534;-92
2021/11/03 14:14:19;;;;;;;27.65;19.25;;;12.60;67.40;;;;;;4962277;28;91706;-91
2021/11/03 14:17:14;;;;;;;24.95;19.35;;;12.60;67.30;;;;;;4962148;28;90589;-91
2021/11/03 14:20:08;;;;;;;27.98;20.50;;;12.60;67.10;;;;;;4994839;28;90148;-91
2021/11/03 14:22:38;;;;;;;26.77;19.23;;;12.60;67.30;;;;;;4978555;28;92135;-91
2021/11/03 14:25:11;;;;;;;22.40;17.55;;;12.60;67.20;;;;;;4978909;28;91931;-92